createdAt,value
2019-04-04T00:00:33.308Z,18.77
2019-04-04T00:02:59.345Z,19.57
2019-04-04T00:05:26.206Z,19.03
2019-04-04T00:07:52.329Z,18.47
2019-04-04T00:10:18.371Z,17.83
2019-04-04T00:12:44.410Z,19.97
2019-04-04T00:15:12.955Z,18.00
2019-04-04T00:17:40.080Z,19.27
2019-04-04T00:20:06.276Z,20.27
2019-04-04T00:22:35.176Z,19.20
2019-04-04T00:25:00.232Z,19.70
2019-04-04T00:27:26.323Z,17.90
2019-04-04T00:29:52.336Z,17.37
2019-04-04T00:32:20.782Z,18.43
2019-04-04T00:34:46.305Z,19.90
2019-04-04T00:37:12.395Z,18.00
2019-04-04T00:39:39.922Z,18.07
2019-04-04T00:42:06.394Z,18.17
2019-04-04T00:44:32.522Z,18.57
2019-04-04T00:47:01.534Z,17.83
2019-04-04T00:49:26.512Z,18.00
2019-04-04T00:51:52.774Z,17.97
2019-04-04T00:54:18.810Z,17.17
2019-04-04T00:56:44.844Z,18.40
2019-04-04T00:59:10.868Z,20.03
2019-04-04T01:01:36.942Z,18.43
2019-04-04T01:04:03.103Z,18.20
2019-04-04T01:06:29.124Z,17.47
2019-04-04T01:08:55.085Z,17.90
2019-04-04T01:11:21.140Z,18.07
2019-04-04T01:13:47.180Z,17.87
2019-04-04T01:16:13.291Z,18.60
2019-04-04T01:18:39.319Z,18.67
2019-04-04T01:21:05.340Z,17.50
2019-04-04T01:23:31.319Z,19.17
2019-04-04T01:25:57.360Z,19.80
2019-04-04T01:28:23.504Z,19.17
2019-04-04T01:30:49.527Z,18.50
2019-04-04T01:33:15.528Z,19.77
2019-04-04T01:35:41.520Z,20.43
2019-04-04T01:38:07.528Z,20.03
2019-04-04T01:40:36.527Z,19.07
2019-04-04T01:43:02.869Z,18.73
2019-04-04T01:45:28.995Z,19.47
2019-04-04T01:47:55.068Z,19.23
2019-04-04T01:50:22.544Z,18.20
2019-04-04T01:52:48.973Z,20.00
2019-04-04T01:55:15.212Z,19.80
2019-04-04T01:57:41.335Z,19.50
2019-04-04T02:00:09.122Z,19.17
2019-04-04T02:02:35.151Z,18.70
2019-04-04T02:05:01.238Z,19.90
2019-04-04T02:07:27.863Z,20.53
2019-04-04T02:09:55.184Z,18.17
2019-04-04T02:12:21.162Z,19.73
2019-04-04T02:14:47.193Z,19.80
2019-04-04T02:17:13.215Z,20.13
2019-04-04T02:19:39.271Z,20.90
2019-04-04T02:22:05.436Z,19.90
2019-04-04T02:24:31.793Z,20.17
2019-04-04T02:26:58.469Z,19.70
2019-04-04T02:29:24.506Z,19.30
2019-04-04T02:31:53.780Z,20.23
2019-04-04T02:34:20.453Z,19.63
2019-04-04T02:36:48.737Z,19.40
2019-04-04T02:39:15.425Z,19.40
2019-04-04T02:41:41.503Z,19.97
2019-04-04T02:44:07.535Z,20.90
2019-04-04T02:46:33.607Z,21.53
2019-04-04T02:48:59.607Z,20.60
2019-04-04T02:51:25.583Z,20.70
2019-04-04T02:53:53.014Z,20.33
2019-04-04T02:56:19.169Z,19.60
2019-04-04T02:58:46.354Z,20.13
2019-04-04T03:01:13.146Z,21.57
2019-04-04T03:03:42.103Z,21.03
2019-04-04T03:06:07.225Z,20.50
2019-04-04T03:08:36.676Z,20.07
2019-04-04T03:11:01.149Z,23.90
2019-04-04T03:13:31.166Z,21.03
2019-04-04T03:15:55.093Z,23.30
2019-04-04T03:18:21.149Z,21.10
2019-04-04T03:20:50.404Z,20.40
2019-04-04T03:23:15.080Z,21.90
2019-04-04T03:25:41.136Z,21.40
2019-04-04T03:28:07.149Z,21.93
2019-04-04T03:30:33.273Z,20.53
2019-04-04T03:32:59.270Z,21.40
2019-04-04T03:35:27.974Z,22.73
2019-04-04T03:37:53.269Z,21.60
2019-04-04T03:40:19.296Z,22.90
2019-04-04T03:42:45.434Z,21.30
2019-04-04T03:45:11.541Z,21.40
2019-04-04T03:47:37.515Z,22.10
2019-04-04T03:50:05.047Z,21.83
2019-04-04T03:52:31.053Z,20.93
2019-04-04T03:54:57.175Z,22.27
2019-04-04T03:57:23.189Z,23.50
2019-04-04T03:59:49.202Z,21.97
2019-04-04T04:02:17.847Z,21.50
2019-04-04T04:04:43.227Z,23.10
2019-04-04T04:07:09.213Z,21.87
2019-04-04T04:09:35.252Z,22.67
2019-04-04T04:12:01.240Z,21.03
2019-04-04T04:14:27.324Z,23.50
2019-04-04T04:16:53.408Z,23.17
2019-04-04T04:19:19.407Z,21.73
2019-04-04T04:21:45.466Z,21.60
2019-04-04T04:24:11.550Z,21.50
2019-04-04T04:26:41.031Z,22.07
2019-04-04T04:29:05.459Z,23.00
2019-04-04T04:31:31.434Z,22.90
2019-04-04T04:34:00.549Z,22.00
2019-04-04T04:36:25.377Z,21.90
2019-04-04T04:38:51.401Z,24.30
2019-04-04T04:41:20.308Z,22.93
2019-04-04T04:43:45.331Z,24.10
2019-04-04T04:46:11.362Z,22.43
2019-04-04T04:48:37.363Z,23.03
2019-04-04T04:51:03.368Z,23.47
2019-04-04T04:53:29.473Z,22.07
2019-04-04T04:55:59.488Z,24.40
2019-04-04T04:58:23.467Z,23.60
2019-04-04T05:00:50.092Z,22.80
2019-04-04T05:03:16.260Z,22.80
2019-04-04T05:05:42.239Z,23.57
2019-04-04T05:08:10.209Z,23.10
2019-04-04T05:10:36.184Z,28.97
2019-04-04T05:13:02.179Z,28.57
2019-04-04T05:15:28.165Z,26.63
2019-04-04T05:17:54.281Z,25.00
2019-04-04T05:20:20.322Z,26.00
2019-04-04T05:22:46.451Z,23.97
2019-04-04T05:25:12.745Z,22.63
2019-04-04T05:27:38.731Z,22.63
2019-04-04T05:30:08.131Z,23.40
2019-04-04T05:32:33.349Z,23.27
2019-04-04T05:35:01.337Z,22.60
2019-04-04T05:37:27.637Z,23.00
2019-04-04T05:39:55.392Z,22.57
2019-04-04T05:42:21.522Z,24.00
2019-04-04T05:44:47.635Z,22.63
2019-04-04T05:47:13.683Z,22.00
2019-04-04T05:49:39.648Z,23.33
2019-04-04T05:52:08.737Z,22.63
2019-04-04T05:54:33.736Z,24.70
2019-04-04T05:56:59.828Z,23.50
2019-04-04T05:59:25.899Z,22.33
2019-04-04T06:01:51.877Z,23.83
2019-04-04T06:04:19.662Z,23.27
2019-04-04T06:06:45.848Z,21.37
2019-04-04T06:09:13.838Z,23.17
2019-04-04T06:11:39.813Z,24.27
2019-04-04T06:14:05.805Z,21.43
2019-04-04T06:16:33.023Z,22.20
2019-04-04T06:18:59.709Z,24.37
2019-04-04T06:21:25.824Z,23.97
2019-04-04T06:23:51.854Z,23.30
2019-04-04T06:26:17.847Z,25.37
2019-04-04T06:28:44.407Z,24.40
2019-04-04T06:31:11.056Z,22.90
2019-04-04T06:33:37.048Z,22.93
2019-04-04T06:36:03.094Z,24.10
2019-04-04T06:38:29.073Z,25.70
2019-04-04T06:40:55.109Z,22.80
2019-04-04T06:43:21.164Z,25.73
2019-04-04T06:45:47.562Z,23.70
2019-04-04T06:48:13.754Z,23.70
2019-04-04T06:50:42.859Z,24.20
2019-04-04T06:53:07.617Z,23.67
2019-04-04T06:55:37.373Z,26.70
2019-04-04T06:58:01.552Z,24.37
2019-04-04T07:00:27.582Z,24.50
2019-04-04T07:02:56.109Z,24.77
2019-04-04T07:05:21.540Z,24.27
2019-04-04T07:07:47.525Z,24.50
2019-04-04T07:10:13.646Z,24.70
2019-04-04T07:12:39.611Z,24.77
2019-04-04T07:15:07.208Z,23.57
2019-04-04T07:17:33.257Z,25.87
2019-04-04T07:19:59.243Z,24.33
2019-04-04T07:22:25.558Z,23.93
2019-04-04T07:24:51.637Z,25.37
2019-04-04T07:27:17.609Z,23.13
2019-04-04T07:29:43.752Z,22.27
2019-04-04T07:32:10.221Z,22.90
2019-04-04T07:34:36.331Z,22.53
2019-04-04T07:37:02.459Z,23.90
2019-04-04T07:39:31.945Z,22.50
2019-04-04T07:41:56.468Z,24.90
2019-04-04T07:44:23.391Z,25.10
2019-04-04T07:46:50.195Z,25.50
2019-04-04T07:49:16.215Z,26.43
2019-04-04T07:51:42.451Z,25.40
2019-04-04T07:54:08.459Z,24.40
2019-04-04T07:56:34.639Z,23.27
2019-04-04T07:59:01.373Z,24.90
2019-04-04T08:01:27.636Z,25.10
2019-04-04T08:03:53.714Z,24.87
2019-04-04T08:06:19.938Z,25.80
2019-04-04T08:08:46.523Z,23.77
2019-04-04T08:11:13.452Z,23.30
2019-04-04T08:13:39.671Z,23.70
2019-04-04T08:16:06.553Z,24.20
2019-04-04T08:18:32.577Z,23.80
2019-04-04T08:20:58.563Z,24.80
2019-04-04T08:23:24.611Z,24.40
2019-04-04T08:25:50.633Z,24.07
2019-04-04T08:28:16.619Z,22.33
2019-04-04T08:30:42.847Z,25.10
2019-04-04T08:33:09.381Z,23.43
2019-04-04T08:35:35.463Z,23.47
2019-04-04T08:38:01.545Z,24.97
2019-04-04T08:40:27.548Z,23.30
2019-04-04T08:42:53.812Z,26.27
2019-04-04T08:45:19.927Z,25.13
2019-04-04T08:47:46.110Z,25.00
2019-04-04T08:50:12.205Z,26.17
2019-04-04T08:52:38.294Z,23.93
2019-04-04T08:55:05.478Z,24.23
2019-04-04T08:57:31.641Z,22.60
2019-04-04T08:59:58.019Z,23.63
2019-04-04T09:02:24.028Z,24.00
2019-04-04T09:04:50.088Z,24.40
2019-04-04T09:07:16.148Z,26.03
2019-04-04T09:09:42.271Z,24.57
2019-04-04T09:12:08.344Z,24.23
2019-04-04T09:14:34.377Z,24.70
2019-04-04T09:17:00.737Z,23.80
2019-04-04T09:19:26.832Z,27.40
2019-04-04T09:21:53.023Z,24.10
2019-04-04T09:24:19.043Z,23.60
2019-04-04T09:26:45.203Z,23.73
2019-04-04T09:29:11.336Z,24.20
2019-04-04T09:31:37.387Z,23.27
2019-04-04T09:34:03.385Z,22.70
2019-04-04T09:36:29.570Z,24.23
2019-04-04T09:38:55.588Z,23.00
2019-04-04T09:41:21.621Z,23.03
2019-04-04T09:43:47.708Z,22.10
2019-04-04T09:46:13.716Z,26.07
2019-04-04T09:48:39.705Z,23.97
2019-04-04T09:51:05.804Z,23.60
2019-04-04T09:53:31.797Z,23.30
2019-04-04T09:55:57.837Z,23.77
2019-04-04T09:58:23.863Z,23.50
2019-04-04T10:00:50.058Z,22.77
2019-04-04T10:03:16.175Z,23.00
2019-04-04T10:05:42.167Z,22.97
2019-04-04T10:08:09.111Z,22.33
2019-04-04T10:10:35.149Z,22.77
2019-04-04T10:13:01.149Z,22.50
2019-04-04T10:15:27.155Z,22.27
2019-04-04T10:17:53.181Z,23.43
2019-04-04T10:20:19.201Z,24.67
2019-04-04T10:22:45.248Z,24.13
2019-04-04T10:25:11.323Z,23.33
2019-04-04T10:27:37.348Z,22.70
2019-04-04T10:30:05.641Z,23.10
2019-04-04T10:32:31.732Z,22.23
2019-04-04T10:34:57.727Z,21.13
2019-04-04T10:37:23.727Z,23.40
2019-04-04T10:39:50.034Z,22.10
2019-04-04T10:42:16.179Z,21.10
2019-04-04T10:44:42.412Z,21.03
2019-04-04T10:47:08.450Z,21.80
2019-04-04T10:49:34.588Z,21.07
2019-04-04T10:52:00.891Z,22.20
2019-04-04T10:54:27.074Z,23.10
2019-04-04T10:56:53.238Z,22.17
2019-04-04T10:59:19.312Z,22.33
2019-04-04T11:01:45.353Z,22.93
2019-04-04T11:04:11.338Z,21.40
2019-04-04T11:06:37.344Z,21.07
2019-04-04T11:09:05.724Z,22.17
2019-04-04T11:11:31.750Z,22.00
2019-04-04T11:13:57.822Z,21.20
2019-04-04T11:16:29.978Z,21.53
2019-04-04T11:18:51.739Z,23.10
2019-04-04T11:21:17.746Z,24.97
2019-04-04T11:23:43.979Z,21.80
2019-04-04T11:26:09.979Z,21.77
2019-04-04T11:28:35.965Z,20.33
2019-04-04T11:31:02.226Z,20.30
2019-04-04T11:33:28.272Z,19.87
2019-04-04T11:35:54.387Z,20.03
2019-04-04T11:38:20.400Z,20.20
2019-04-04T11:40:46.637Z,20.00
2019-04-04T11:43:12.651Z,21.97
2019-04-04T11:45:38.670Z,19.63
2019-04-04T11:48:04.964Z,21.20
2019-04-04T11:50:31.037Z,19.20
2019-04-04T11:52:57.414Z,20.47
2019-04-04T11:55:23.504Z,18.67
2019-04-04T11:57:49.516Z,18.67
2019-04-04T12:00:17.689Z,17.40
2019-04-04T12:02:43.721Z,17.23
2019-04-04T12:05:10.177Z,15.90
2019-04-04T12:07:38.372Z,17.10
2019-04-04T12:10:07.607Z,19.23
2019-04-04T12:12:33.529Z,19.67
2019-04-04T12:14:59.578Z,19.70
2019-04-04T12:17:25.584Z,19.77
2019-04-04T12:19:51.578Z,19.63
2019-04-04T12:22:17.625Z,18.93
2019-04-04T12:24:43.709Z,19.30
2019-04-04T12:27:09.787Z,18.07
2019-04-04T12:29:35.908Z,20.00
2019-04-04T12:32:02.342Z,19.63
2019-04-04T12:34:28.348Z,19.03
2019-04-04T12:36:54.385Z,19.17
2019-04-04T12:39:20.619Z,18.90
2019-04-04T12:41:46.966Z,19.00
2019-04-04T12:44:12.976Z,18.00
2019-04-04T12:46:39.088Z,17.97
2019-04-04T12:49:05.121Z,17.27
2019-04-04T12:51:31.198Z,17.57
2019-04-04T12:53:57.575Z,19.10
2019-04-04T12:56:23.708Z,18.07
2019-04-04T12:58:49.732Z,17.57
2019-04-04T13:01:16.036Z,17.77
2019-04-04T13:03:42.169Z,18.30
2019-04-04T13:06:08.212Z,17.77
2019-04-04T13:08:34.220Z,19.67
2019-04-04T13:11:00.232Z,19.87
2019-04-04T13:13:26.547Z,19.67
2019-04-04T13:15:52.648Z,19.00
2019-04-04T13:18:18.677Z,19.80
2019-04-04T13:20:44.720Z,20.70
2019-04-04T13:23:10.773Z,20.73
2019-04-04T13:25:36.782Z,19.07
2019-04-04T13:28:02.834Z,26.27
2019-04-04T13:30:28.895Z,24.10
2019-04-04T13:32:54.916Z,20.13
2019-04-04T13:35:21.035Z,22.53
2019-04-04T13:37:47.044Z,23.30
2019-04-04T13:40:13.387Z,21.50
2019-04-04T13:42:39.524Z,20.80
2019-04-04T13:45:06.336Z,21.93
2019-04-04T13:47:32.345Z,21.33
2019-04-04T13:49:58.539Z,21.13
2019-04-04T13:52:26.459Z,20.83
2019-04-04T13:54:55.615Z,21.20
2019-04-04T13:57:20.727Z,21.80
2019-04-04T13:59:46.836Z,21.60
2019-04-04T14:02:12.908Z,21.17
2019-04-04T14:04:39.234Z,21.33
2019-04-04T14:07:05.372Z,25.47
2019-04-04T14:09:32.061Z,22.33
2019-04-04T14:11:58.161Z,21.70
2019-04-04T14:14:24.271Z,20.87
2019-04-04T14:16:50.643Z,22.33
2019-04-04T14:19:16.680Z,22.00
2019-04-04T14:21:42.801Z,21.60
2019-04-04T14:24:13.828Z,21.67
2019-04-04T14:26:36.935Z,21.93
2019-04-04T14:29:04.518Z,21.97
2019-04-04T14:31:30.928Z,21.43
2019-04-04T14:33:56.991Z,23.13
2019-04-04T14:36:23.309Z,21.03
2019-04-04T14:38:49.382Z,21.97
2019-04-04T14:41:15.436Z,21.97
2019-04-04T14:43:41.604Z,22.87
2019-04-04T14:46:07.612Z,22.50
2019-04-04T14:48:33.633Z,21.80
2019-04-04T14:50:59.718Z,23.87
2019-04-04T14:53:26.222Z,21.50
2019-04-04T14:55:52.897Z,20.90
2019-04-04T14:58:18.931Z,21.70
2019-04-04T15:00:44.980Z,22.00
2019-04-04T15:03:11.072Z,22.80
2019-04-04T15:05:37.063Z,20.87
2019-04-04T15:08:03.121Z,20.33
2019-04-04T15:10:29.295Z,20.80
2019-04-04T15:12:55.288Z,21.40
2019-04-04T15:15:21.287Z,20.17
2019-04-04T15:17:47.323Z,21.07
2019-04-04T15:20:13.794Z,21.73
2019-04-04T15:22:39.844Z,19.10
2019-04-04T15:25:05.892Z,21.10
2019-04-04T15:27:31.875Z,22.10
2019-04-04T15:29:58.170Z,20.60
2019-04-04T15:32:24.490Z,22.10
2019-04-04T15:34:50.654Z,21.27
2019-04-04T15:37:16.751Z,21.63
2019-04-04T15:39:42.744Z,21.40
2019-04-04T15:42:08.731Z,21.20
2019-04-04T15:44:34.749Z,21.63
2019-04-04T15:47:01.040Z,27.40
2019-04-04T15:49:27.162Z,22.53
2019-04-04T15:51:53.283Z,25.40
2019-04-04T15:54:19.315Z,26.00
2019-04-04T15:56:45.676Z,23.97
2019-04-04T15:59:11.925Z,25.43
2019-04-04T16:01:38.097Z,21.87
2019-04-04T16:04:04.480Z,31.20
2019-04-04T16:06:30.468Z,22.93
2019-04-04T16:08:56.699Z,24.60
2019-04-04T16:11:22.698Z,24.10
2019-04-04T16:13:48.764Z,21.30
2019-04-04T16:16:15.831Z,23.57
2019-04-04T16:18:42.000Z,22.80
2019-04-04T16:21:08.078Z,21.70
2019-04-04T16:23:34.139Z,21.07
2019-04-04T16:26:00.134Z,22.23
2019-04-04T16:28:26.534Z,23.00
2019-04-04T16:30:52.592Z,24.47
2019-04-04T16:33:18.990Z,24.20
2019-04-04T16:35:45.104Z,21.53
2019-04-04T16:38:11.103Z,21.30
2019-04-04T16:40:37.228Z,21.63
2019-04-04T16:43:03.345Z,22.10
2019-04-04T16:45:29.700Z,21.53
2019-04-04T16:47:56.240Z,21.77
2019-04-04T16:50:22.651Z,20.77
2019-04-04T16:52:49.080Z,21.00
2019-04-04T16:55:15.272Z,22.27
2019-04-04T16:57:43.255Z,21.83
2019-04-04T17:00:11.344Z,21.93
2019-04-04T17:02:37.631Z,21.87
2019-04-04T17:05:04.066Z,19.97
2019-04-04T17:07:30.090Z,21.30
2019-04-04T17:09:56.108Z,21.40
2019-04-04T17:12:22.200Z,22.93
2019-04-04T17:14:48.406Z,20.40
2019-04-04T17:17:14.527Z,22.93
2019-04-04T17:19:40.890Z,19.50
2019-04-04T17:22:06.981Z,21.13
2019-04-04T17:24:32.985Z,21.70
2019-04-04T17:26:59.723Z,20.53
2019-04-04T17:29:25.820Z,20.70
2019-04-04T17:31:52.565Z,21.57
2019-04-04T17:34:19.178Z,22.27
2019-04-04T17:36:47.965Z,21.13
2019-04-04T17:39:14.162Z,22.73
2019-04-04T17:41:40.374Z,25.43
2019-04-04T17:44:06.739Z,23.00
2019-04-04T17:46:33.286Z,22.13
2019-04-04T17:48:59.740Z,18.70
2019-04-04T17:51:26.103Z,20.00
2019-04-04T17:53:53.527Z,20.57
2019-04-04T17:56:20.199Z,20.83
2019-04-04T17:58:46.365Z,20.80
2019-04-04T18:01:13.028Z,21.60
2019-04-04T18:03:39.075Z,19.90
2019-04-04T18:06:05.106Z,22.77
2019-04-04T18:08:31.112Z,21.27
2019-04-04T18:10:57.479Z,23.20
2019-04-04T18:13:23.474Z,25.53
2019-04-04T18:15:49.477Z,25.57
2019-04-04T18:18:15.644Z,25.30
2019-04-04T18:20:41.790Z,24.27
2019-04-04T18:23:07.819Z,28.03
2019-04-04T18:25:34.849Z,25.10
2019-04-04T18:28:00.989Z,25.90
2019-04-04T18:30:27.107Z,23.53
2019-04-04T18:32:53.493Z,23.50
2019-04-04T18:35:19.994Z,24.80
2019-04-04T18:37:46.214Z,24.80
2019-04-04T18:45:32.982Z,24.83
2019-04-04T18:47:59.096Z,24.50
2019-04-04T18:50:25.145Z,23.40
2019-04-04T18:52:51.151Z,26.60
2019-04-04T18:55:20.138Z,27.37
2019-04-04T18:57:45.220Z,26.37
2019-04-04T19:00:11.492Z,26.97
2019-04-04T19:02:37.690Z,25.93
2019-04-04T19:05:06.016Z,23.60
2019-04-04T19:07:39.314Z,26.97
2019-04-04T19:09:59.992Z,27.63
2019-04-04T19:12:26.108Z,26.23
2019-04-04T19:14:52.344Z,26.70
2019-04-04T19:17:18.335Z,25.17
2019-04-04T19:19:44.437Z,25.60
2019-04-04T19:22:10.646Z,26.97
2019-04-04T19:24:36.748Z,28.20
2019-04-04T19:27:03.218Z,25.87
2019-04-04T19:29:31.586Z,26.47
2019-04-04T19:31:57.816Z,25.73
2019-04-04T19:34:24.146Z,23.80
2019-04-04T19:36:50.175Z,25.83
2019-04-04T19:39:17.012Z,23.20
2019-04-04T19:41:43.081Z,25.17
2019-04-04T19:44:09.250Z,23.80
2019-04-04T19:46:37.326Z,25.20
2019-04-04T19:49:03.745Z,23.33
2019-04-04T19:51:29.853Z,24.67
2019-04-04T19:53:55.892Z,23.37
2019-04-04T19:56:22.033Z,25.87
2019-04-04T19:58:48.150Z,23.83
2019-04-04T20:01:14.416Z,24.93
2019-04-04T20:03:40.506Z,23.93
2019-04-04T20:06:06.563Z,22.60
2019-04-04T20:08:32.958Z,24.37
2019-04-04T20:10:59.245Z,21.67
2019-04-04T20:13:31.242Z,22.67
2019-04-04T20:16:41.608Z,21.73
2019-04-04T20:19:07.667Z,22.33
2019-04-04T20:21:33.845Z,21.30
2019-04-04T20:24:00.001Z,20.40
2019-04-04T20:26:26.030Z,21.33
2019-04-04T20:28:52.142Z,20.50
2019-04-04T20:31:18.163Z,22.70
2019-04-04T20:33:44.494Z,21.90
2019-04-04T20:36:10.587Z,20.67
2019-04-04T20:38:37.080Z,21.67
2019-04-04T20:41:03.313Z,20.33
2019-04-04T20:43:29.505Z,20.60
2019-04-04T20:45:56.821Z,20.97
2019-04-04T20:48:22.927Z,20.50
2019-04-04T20:50:50.570Z,21.97
2019-04-04T20:53:16.713Z,21.17
2019-04-04T20:55:42.830Z,19.70
2019-04-04T20:58:09.026Z,19.77
2019-04-04T21:00:35.064Z,20.53
2019-04-04T21:03:03.371Z,20.80
2019-04-04T21:05:29.389Z,21.97
2019-04-04T21:07:55.597Z,19.40
2019-04-04T21:10:21.707Z,19.90
2019-04-04T21:12:47.908Z,20.00
2019-04-04T21:15:14.064Z,19.07
2019-04-04T21:17:40.319Z,21.03
2019-04-04T21:20:06.838Z,20.70
2019-04-04T21:22:32.984Z,19.40
2019-04-04T21:24:59.031Z,20.83
2019-04-04T21:27:25.081Z,19.13
2019-04-04T21:29:51.351Z,20.23
2019-04-04T21:32:19.474Z,20.80
2019-04-04T21:34:45.759Z,19.30
2019-04-04T21:37:11.838Z,19.33
2019-04-04T21:39:37.916Z,19.70
2019-04-04T21:42:03.966Z,21.20
2019-04-04T21:44:30.784Z,19.73
2019-04-04T21:46:57.157Z,19.97
2019-04-04T21:49:23.198Z,20.43
2019-04-04T21:51:49.284Z,20.50
2019-04-04T21:54:15.403Z,19.20
2019-04-04T21:56:41.681Z,20.53
2019-04-04T21:59:07.787Z,20.63
2019-04-04T22:01:33.904Z,21.27
2019-04-04T22:03:59.955Z,18.20
2019-04-04T22:06:25.960Z,20.90
2019-04-04T22:08:52.023Z,19.27
2019-04-04T22:11:18.224Z,35.57
2019-04-04T22:13:44.250Z,45.03
2019-04-04T22:16:10.610Z,20.23
2019-04-04T22:18:36.643Z,22.97
2019-04-04T22:21:02.757Z,23.73
2019-04-04T22:23:28.834Z,21.83
2019-04-04T22:25:55.017Z,24.40
2019-04-04T22:28:21.078Z,23.40
2019-04-04T22:30:47.304Z,163.87
2019-04-04T22:33:13.356Z,98.93
2019-04-04T22:35:39.568Z,125.83
2019-04-04T22:38:05.607Z,86.00
2019-04-04T22:40:31.615Z,48.53
2019-04-04T22:42:57.743Z,26.33
2019-04-04T22:45:23.762Z,18.97
2019-04-04T22:47:49.817Z,18.13
2019-04-04T22:50:15.931Z,19.80
2019-04-04T22:52:42.304Z,18.37
2019-04-04T22:55:08.624Z,19.63
2019-04-04T22:57:34.749Z,19.20
2019-04-04T23:00:00.995Z,18.20
2019-04-04T23:02:27.105Z,21.00
2019-04-04T23:04:53.178Z,19.37
2019-04-04T23:07:19.227Z,19.27
2019-04-04T23:09:45.338Z,19.30
2019-04-04T23:12:11.455Z,17.80
2019-04-04T23:14:47.516Z,18.17
2019-04-04T23:17:05.523Z,18.83
2019-04-04T23:19:31.520Z,18.70
2019-04-04T23:21:57.553Z,18.80
2019-04-04T23:24:23.546Z,18.97
2019-04-04T23:26:49.599Z,19.03
2019-04-04T23:29:15.612Z,17.63
2019-04-04T23:31:41.798Z,19.80
2019-04-04T23:34:08.264Z,18.00
2019-04-04T23:36:35.519Z,20.93
2019-04-04T23:39:01.788Z,18.67
2019-04-04T23:41:27.792Z,20.57
2019-04-04T23:43:53.844Z,17.80
2019-04-04T23:46:19.934Z,20.07
2019-04-04T23:48:46.021Z,19.50
2019-04-04T23:51:12.049Z,18.40
2019-04-04T23:53:38.162Z,21.90
2019-04-04T23:56:04.306Z,19.87
2019-04-04T23:58:30.400Z,21.17
